Time;durP1;ratioP1;P1;durP2;ratioP2;P2;SDS_P1;SDS_P2;PMS_P1;PMS_P2;Temp;Humidity;BMP_temperature;BMP_pressure;BME280_temperature;BME280_humidity;BME280_pressure;Samples;Min_cycle;Max_cycle;Signal;HPM_P1;HPM_P2
2023/07/29 00:01:19;;;;;;;3.58;2.10;;;;;;;;;;4972152;28;20085;-38
2023/07/29 00:03:46;;;;;;;2.17;1.98;;;22.20;84.50;;;;;;4970972;28;20133;-34
2023/07/29 00:06:13;;;;;;;3.22;2.25;;;22.00;84.10;;;;;;4952747;28;20548;-34
2023/07/29 00:08:40;;;;;;;2.63;2.13;;;;;;;;;;4952482;28;20126;-34
2023/07/29 00:11:07;;;;;;;2.00;1.80;;;22.10;84.20;;;;;;4952692;28;20560;-33
2023/07/29 00:13:34;;;;;;;2.17;1.77;;;;;;;;;;4965758;28;20057;-35
2023/07/29 00:16:02;;;;;;;2.40;2.05;;;22.50;79.30;;;;;;4953161;28;20130;-35
2023/07/29 00:18:28;;;;;;;2.75;2.00;;;21.60;83.90;;;;;;4952555;28;20164;-33
2023/07/29 00:20:55;;;;;;;2.45;2.10;;;21.90;82.00;;;;;;4953384;28;20051;-34
2023/07/29 00:23:22;;;;;;;3.97;2.00;;;;;;;;;;4952278;28;20559;-37
2023/07/29 00:25:49;;;;;;;2.50;1.90;;;21.80;84.70;;;;;;4952600;28;20470;-33
2023/07/29 00:28:16;;;;;;;2.25;2.03;;;;;;;;;;4952026;28;20126;-35
2023/07/29 00:30:43;;;;;;;2.10;1.73;;;21.70;83.90;;;;;;4956420;28;20138;-33
2023/07/29 00:33:11;;;;;;;2.55;2.00;;;21.80;68.90;;;;;;4952524;28;20134;-34
2023/07/29 00:35:38;;;;;;;2.40;1.80;;;;;;;;;;4952440;28;20105;-34
2023/07/29 00:38:05;;;;;;;2.20;1.95;;;;;;;;;;4962083;28;20046;-33
2023/07/29 00:40:32;;;;;;;2.13;1.92;;;21.80;73.20;;;;;;4970058;28;20513;-34
2023/07/29 00:42:59;;;;;;;2.00;1.80;;;21.50;79.20;;;;;;4971196;28;20124;-34
2023/07/29 00:45:26;;;;;;;2.53;2.17;;;21.80;76.50;;;;;;4971384;28;20057;-33
2023/07/29 00:47:53;;;;;;;3.22;2.45;;;22.00;84.10;;;;;;4971582;28;20051;-33
2023/07/29 00:50:21;;;;;;;1.80;1.70;;;21.20;84.30;;;;;;4971247;28;20134;-33
2023/07/29 00:52:48;;;;;;;2.30;1.90;;;21.40;81.80;;;;;;4970826;28;20061;-33
2023/07/29 00:55:15;;;;;;;2.00;1.67;;;;;;;;;;4956659;28;20059;-36
2023/07/29 00:57:42;;;;;;;2.67;1.90;;;22.30;85.00;;;;;;4952106;28;20571;-34
2023/07/29 01:00:10;;;;;;;2.30;1.90;;;21.70;68.70;;;;;;4952199;28;20109;-34
2023/07/29 01:02:37;;;;;;;2.83;1.92;;;;;;;;;;4951616;28;20051;-37
2023/07/29 01:05:04;;;;;;;3.83;1.90;;;22.00;84.30;;;;;;4952151;28;20150;-34
2023/07/29 01:07:37;;;;;;;1.95;1.75;;;21.70;68.70;;;;;;4951801;28;20523;-37
2023/07/29 01:10:05;;;;;;;2.90;2.33;;;20.70;78.90;;;;;;4953882;28;20054;-37
2023/07/29 01:12:37;;;;;;;3.28;2.00;;;22.70;77.40;;;;;;4963319;28;20078;-32
2023/07/29 01:15:08;;;;;;;2.28;1.98;;;21.80;83.80;;;;;;4963365;28;20571;-33
2023/07/29 01:17:39;;;;;;;2.50;2.05;;;21.70;68.70;;;;;;4970880;28;20478;-38
2023/07/29 01:20:07;;;;;;;2.35;2.05;;;21.50;78.50;;;;;;4970762;28;20133;-33
2023/07/29 01:22:36;;;;;;;2.10;1.90;;;21.40;73.80;;;;;;4970936;28;20137;-34
2023/07/29 01:25:05;;;;;;;2.28;2.08;;;22.40;84.90;;;;;;4971239;28;20055;-34
2023/07/29 01:27:32;;;;;;;2.25;1.98;;;;;;;;;;4962715;28;20138;-35
2023/07/29 01:29:59;;;;;;;2.10;1.90;;;22.40;84.30;;;;;;4964821;28;20054;-33
2023/07/29 01:32:33;;;;;;;2.97;2.20;;;21.60;68.60;;;;;;4970701;28;20047;-36
2023/07/29 01:35:04;;;;;;;2.58;2.10;;;21.70;68.70;;;;;;4970645;28;20089;-35
2023/07/29 01:37:33;;;;;;;3.08;2.10;;;21.60;68.60;;;;;;4970368;28;20137;-34
2023/07/29 01:40:00;;;;;;;5.10;2.40;;;21.40;79.20;;;;;;4970590;28;20047;-37
2023/07/29 01:42:28;;;;;;;3.97;2.00;;;21.90;68.70;;;;;;4970652;28;20105;-33
2023/07/29 01:44:56;;;;;;;2.63;1.83;;;;;;;;;;4953805;28;20138;-36
2023/07/29 01:47:23;;;;;;;2.60;2.20;;;21.90;72.30;;;;;;4951208;28;20091;-35
2023/07/29 01:49:49;;;;;;;2.00;1.80;;;21.50;79.70;;;;;;4953534;28;20047;-33
2023/07/29 01:52:17;;;;;;;2.42;2.00;;;;;;;;;;4970444;28;20057;-36
2023/07/29 01:54:43;;;;;;;2.80;2.22;;;22.50;72.30;;;;;;4970464;28;20054;-33
2023/07/29 01:57:10;;;;;;;3.05;2.40;;;22.00;83.70;;;;;;4961535;28;20134;-33
2023/07/29 01:59:39;;;;;;;2.45;2.05;;;21.30;81.80;;;;;;4951135;28;20070;-34
2023/07/29 02:02:05;;;;;;;2.45;2.00;;;21.20;73.70;;;;;;4950810;28;20062;-33
2023/07/29 02:04:32;;;;;;;3.45;2.28;;;21.10;81.60;;;;;;4950422;28;20052;-36
2023/07/29 02:06:59;;;;;;;3.20;2.25;;;;;;;;;;4951335;28;20142;-33
2023/07/29 02:09:27;;;;;;;3.55;2.33;;;21.70;83.80;;;;;;4950951;28;20047;-34
2023/07/29 02:11:54;;;;;;;2.83;2.30;;;21.50;83.60;;;;;;4950886;28;20051;-35
2023/07/29 02:14:20;;;;;;;2.50;2.00;;;21.70;83.80;;;;;;4956325;28;20731;-33
2023/07/29 02:16:49;;;;;;;2.60;2.30;;;21.80;68.60;;;;;;4969979;28;20134;-35
2023/07/29 02:19:16;;;;;;;3.42;2.40;;;21.20;78.00;;;;;;4969940;28;20133;-33
2023/07/29 02:21:42;;;;;;;2.92;2.47;;;21.80;73.30;;;;;;4970078;28;20050;-32
2023/07/29 02:24:09;;;;;;;3.38;2.63;;;22.70;84.30;;;;;;4970115;28;20516;-33
2023/07/29 02:26:36;;;;;;;2.75;2.22;;;21.90;78.40;;;;;;4967871;28;20186;-36
2023/07/29 02:29:02;;;;;;;3.25;2.75;;;21.60;75.30;;;;;;4950592;28;20130;-36
2023/07/29 02:31:29;;;;;;;3.42;2.72;;;;;;;;;;4950767;28;20078;-34
2023/07/29 02:33:58;;;;;;;3.72;2.20;;;21.60;74.70;;;;;;4950663;28;20051;-35
2023/07/29 02:36:25;;;;;;;2.70;2.40;;;;;;;;;;4954794;28;20145;-36
2023/07/29 02:38:52;;;;;;;2.70;2.40;;;;;;;;;;4969604;28;20086;-38
2023/07/29 02:41:19;;;;;;;2.92;2.50;;;;;;;;;;4969912;28;20061;-36
2023/07/29 02:43:49;;;;;;;2.45;2.25;;;21.60;68.50;;;;;;4968495;28;20138;-33
2023/07/29 02:46:16;;;;;;;4.18;2.70;;;;;;;;;;4966128;28;20129;-36
2023/07/29 02:48:43;;;;;;;3.40;2.40;;;21.80;83.80;;;;;;4949973;28;20556;-33
2023/07/29 02:51:11;;;;;;;3.78;2.28;;;22.50;84.20;;;;;;4950507;28;20059;-33
2023/07/29 02:53:38;;;;;;;3.15;2.50;;;20.80;83.30;;;;;;4949928;28;20138;-36
2023/07/29 02:56:06;;;;;;;3.00;2.38;;;21.30;69.40;;;;;;4950528;28;20135;-36
2023/07/29 02:58:33;;;;;;;3.03;2.58;;;;;;;;;;4950392;28;20179;-34
2023/07/29 03:01:01;;;;;;;2.83;2.40;;;20.80;79.40;;;;;;4963278;28;20055;-33
2023/07/29 03:03:28;;;;;;;3.13;2.28;;;20.60;81.30;;;;;;4969225;28;20128;-35
2023/07/29 03:05:59;;;;;;;3.97;2.30;;;22.40;80.10;;;;;;4969442;28;20133;-35
2023/07/29 03:08:27;;;;;;;3.20;2.47;;;21.60;68.40;;;;;;4969432;28;20057;-34
2023/07/29 03:10:54;;;;;;;3.22;2.35;;;;;;;;;;4969277;28;20117;-33
2023/07/29 03:13:21;;;;;;;3.55;2.50;;;21.40;71.40;;;;;;4969132;28;20047;-37
2023/07/29 03:15:48;;;;;;;2.90;2.50;;;21.80;84.10;;;;;;4954360;28;20055;-33
2023/07/29 03:18:15;;;;;;;3.88;2.45;;;;;;;;;;4962610;28;20126;-36
2023/07/29 03:20:42;;;;;;;2.45;2.25;;;20.70;83.20;;;;;;4949837;28;20055;-34
2023/07/29 03:23:09;;;;;;;2.95;2.40;;;21.80;78.20;;;;;;4949630;28;20130;-33
2023/07/29 03:25:37;;;;;;;4.13;2.58;;;21.50;68.40;;;;;;4955868;28;20134;-37
2023/07/29 03:28:04;;;;;;;3.33;2.47;;;22.10;77.60;;;;;;4969355;28;20055;-37
2023/07/29 03:30:30;;;;;;;3.20;2.85;;;21.70;83.80;;;;;;4969256;28;20051;-40
2023/07/29 03:32:58;;;;;;;3.85;2.60;;;;;;;;;;4967226;28;20049;-33
2023/07/29 03:35:24;;;;;;;3.47;2.13;;;22.20;74.30;;;;;;4960055;28;20058;-38
2023/07/29 03:37:51;;;;;;;2.90;2.60;;;22.30;84.40;;;;;;4965291;28;20134;-39
2023/07/29 03:40:18;;;;;;;4.50;2.40;;;;;;;;;;4968916;28;20104;-38
2023/07/29 03:42:46;;;;;;;2.95;2.38;;;21.50;68.20;;;;;;4963131;28;20130;-37
2023/07/29 03:45:13;;;;;;;4.93;2.40;;;21.50;84.30;;;;;;4949934;28;20055;-40
2023/07/29 03:47:40;;;;;;;3.63;2.78;;;;;;;;;;4949510;28;20138;-38
2023/07/29 03:50:07;;;;;;;2.80;2.50;;;21.30;70.50;;;;;;4952808;28;20043;-39
2023/07/29 03:52:34;;;;;;;3.97;2.70;;;;;;;;;;4949316;28;20051;-35
2023/07/29 03:55:01;;;;;;;3.72;2.95;;;22.10;83.80;;;;;;4949738;28;20119;-38
2023/07/29 03:57:29;;;;;;;4.13;2.63;;;;;;;;;;4950131;28;20664;-36
2023/07/29 03:59:57;;;;;;;4.00;2.35;;;21.40;68.20;;;;;;4949636;28;20134;-37
2023/07/29 04:02:24;;;;;;;3.00;2.42;;;20.40;83.20;;;;;;4949638;28;20134;-40
2023/07/29 04:04:51;;;;;;;3.28;2.10;;;22.00;79.90;;;;;;4968233;28;20051;-39
2023/07/29 04:07:18;;;;;;;3.03;2.50;;;;;;;;;;4969076;28;20643;-37
2023/07/29 04:09:45;;;;;;;2.63;2.30;;;21.60;76.60;;;;;;4968560;28;20407;-36
2023/07/29 04:12:12;;;;;;;2.92;2.42;;;21.60;83.70;;;;;;4968770;28;20142;-39
2023/07/29 04:14:39;;;;;;;2.67;2.40;;;;;;;;;;4960402;28;20057;-33
2023/07/29 04:17:08;;;;;;;3.15;2.13;;;21.00;83.20;;;;;;4964728;28;20081;-39
2023/07/29 04:19:34;;;;;;;3.10;2.22;;;21.90;83.80;;;;;;4957481;28;20706;-38
2023/07/29 04:22:02;;;;;;;2.50;2.22;;;;;;;;;;4949271;28;20134;-32
2023/07/29 04:24:29;;;;;;;3.47;2.20;;;;;;;;;;4949032;28;20554;-39
2023/07/29 04:26:56;;;;;;;2.83;2.25;;;21.40;83.40;;;;;;4949251;28;20473;-39
2023/07/29 04:29:23;;;;;;;3.28;2.60;;;21.20;84.10;;;;;;4952216;28;20057;-40
2023/07/29 04:31:50;;;;;;;3.85;2.30;;;21.30;83.20;;;;;;4953454;28;20404;-36
2023/07/29 04:34:18;;;;;;;2.35;2.15;;;21.00;83.20;;;;;;4952268;28;20588;-38
2023/07/29 04:36:45;;;;;;;2.67;2.15;;;;;;;;;;4958985;28;20129;-37
2023/07/29 04:39:12;;;;;;;3.05;2.40;;;;;;;;;;4964330;28;20062;-36
2023/07/29 04:41:39;;;;;;;2.47;2.25;;;;;;;;;;4952278;28;20134;-37
2023/07/29 04:44:06;;;;;;;2.85;2.13;;;;;;;;;;4952140;28;20134;-38
2023/07/29 04:46:34;;;;;;;2.30;2.10;;;21.20;77.20;;;;;;4951874;28;20061;-37
2023/07/29 04:49:02;;;;;;;3.13;2.28;;;;;;;;;;4955055;28;20514;-37
2023/07/29 04:51:31;;;;;;;2.95;2.25;;;21.00;83.80;;;;;;4952391;28;20082;-38
2023/07/29 04:53:58;;;;;;;3.08;2.30;;;;;;;;;;4952107;28;20130;-35
2023/07/29 04:56:25;;;;;;;2.45;2.03;;;;;;;;;;4952171;28;20138;-39
2023/07/29 04:58:53;;;;;;;2.40;2.10;;;;;;;;;;4969906;28;20125;-34
2023/07/29 05:01:20;;;;;;;2.72;2.30;;;;;;;;;;4971453;28;20062;-34
2023/07/29 05:03:47;;;;;;;3.13;2.05;;;21.70;83.50;;;;;;4970876;28;20507;-40
2023/07/29 05:06:14;;;;;;;2.13;1.90;;;21.90;83.60;;;;;;4970401;28;20130;-40
2023/07/29 05:08:42;;;;;;;2.50;2.30;;;20.60;71.80;;;;;;4970825;28;20438;-38
2023/07/29 05:11:09;;;;;;;4.20;1.92;;;21.80;75.30;;;;;;4971214;28;20093;-41
2023/07/29 05:13:35;;;;;;;3.17;2.28;;;21.00;82.60;;;;;;4971009;28;20051;-42
2023/07/29 05:16:02;;;;;;;2.30;2.10;;;21.20;79.40;;;;;;4952094;28;20139;-41
2023/07/29 05:18:29;;;;;;;2.72;1.95;;;20.40;71.80;;;;;;4952526;28;20393;-37
2023/07/29 05:20:55;;;;;;;3.72;2.15;;;21.60;84.20;;;;;;4970816;28;20133;-40
2023/07/29 05:23:22;;;;;;;2.53;1.92;;;21.20;74.80;;;;;;4971034;28;20192;-40
2023/07/29 05:25:50;;;;;;;2.33;2.00;;;22.20;73.90;;;;;;4970926;28;20058;-39
2023/07/29 05:28:17;;;;;;;3.20;2.00;;;21.20;72.50;;;;;;4970759;28;20133;-37
2023/07/29 05:30:44;;;;;;;2.45;1.92;;;21.80;83.60;;;;;;4970748;28;20138;-38
2023/07/29 05:33:11;;;;;;;2.45;2.05;;;;;;;;;;4970730;28;20055;-37
2023/07/29 05:35:38;;;;;;;2.42;2.13;;;20.50;78.30;;;;;;4967601;28;20055;-39
2023/07/29 05:38:06;;;;;;;2.75;1.90;;;21.70;83.90;;;;;;4952988;28;20082;-40
2023/07/29 05:40:33;;;;;;;2.72;2.10;;;21.60;74.70;;;;;;4950418;28;20060;-40
2023/07/29 05:43:02;;;;;;;2.65;1.95;;;20.90;72.60;;;;;;4951129;28;20142;-39
2023/07/29 05:45:30;;;;;;;2.10;1.90;;;;;;;;;;4951425;28;20497;-38
2023/07/29 05:47:57;;;;;;;2.30;1.95;;;;;;;;;;4951237;28;20684;-39
2023/07/29 05:50:24;;;;;;;1.95;1.75;;;21.30;68.40;;;;;;4949843;29;20416;-37
2023/07/29 05:52:51;;;;;;;1.90;1.70;;;21.50;83.90;;;;;;4952172;28;20583;-40
2023/07/29 05:55:18;;;;;;;1.95;1.75;;;;;;;;;;4950983;28;20138;-36
2023/07/29 05:57:45;;;;;;;3.25;1.92;;;22.50;84.00;;;;;;4951481;28;20152;-40
2023/07/29 06:00:13;;;;;;;2.03;1.67;;;21.60;84.30;;;;;;4951115;28;20142;-40
2023/07/29 06:02:41;;;;;;;2.78;1.98;;;;;;;;;;4954085;28;20121;-37
2023/07/29 06:05:08;;;;;;;2.40;1.80;;;20.90;74.50;;;;;;4970067;28;20512;-39
2023/07/29 06:07:35;;;;;;;2.40;2.05;;;22.00;83.80;;;;;;4970054;28;20411;-39
2023/07/29 06:10:01;;;;;;;2.30;2.10;;;21.60;83.90;;;;;;4970528;28;20069;-39
2023/07/29 06:12:28;;;;;;;2.88;1.95;;;;;;;;;;4966543;28;20086;-37
2023/07/29 06:14:55;;;;;;;2.65;1.80;;;21.70;84.20;;;;;;4959836;28;20051;-39
2023/07/29 06:17:23;;;;;;;1.80;1.60;;;21.40;83.70;;;;;;4960458;28;20455;-40
2023/07/29 06:19:50;;;;;;;2.22;1.92;;;;;;;;;;4965500;28;20051;-40
2023/07/29 06:22:17;;;;;;;3.15;1.70;;;21.80;83.00;;;;;;4969366;28;20057;-39
2023/07/29 06:24:44;;;;;;;2.33;1.77;;;;;;;;;;4969979;28;20448;-40
2023/07/29 06:27:11;;;;;;;1.90;1.70;;;;;;;;;;4970357;28;20142;-38
2023/07/29 06:29:38;;;;;;;2.03;1.73;;;21.10;83.10;;;;;;4970040;28;20129;-41
2023/07/29 06:32:06;;;;;;;1.92;1.63;;;21.40;67.80;;;;;;4959752;28;20085;-38
2023/07/29 06:34:34;;;;;;;3.00;1.80;;;21.40;67.90;;;;;;4967743;28;20130;-34
2023/07/29 06:37:01;;;;;;;2.03;1.60;;;;;;;;;;4969290;28;20587;-36
2023/07/29 06:39:28;;;;;;;2.75;1.75;;;22.50;83.70;;;;;;4970161;28;20469;-39
2023/07/29 06:41:55;;;;;;;3.40;1.77;;;21.00;83.10;;;;;;4970148;28;20133;-37
2023/07/29 06:44:22;;;;;;;2.78;1.63;;;;;;;;;;4969612;28;20634;-39
2023/07/29 06:46:48;;;;;;;1.77;1.60;;;22.10;76.80;;;;;;4963723;28;20051;-39
2023/07/29 06:49:15;;;;;;;2.17;1.77;;;;;;;;;;4959732;28;20129;-39
2023/07/29 06:51:43;;;;;;;2.55;1.80;;;21.60;84.10;;;;;;4958468;28;20051;-38
2023/07/29 06:54:11;;;;;;;2.75;1.70;;;;;;;;;;4959711;28;20047;-41
2023/07/29 06:56:37;;;;;;;2.50;1.90;;;22.20;84.30;;;;;;4960746;28;20126;-40
2023/07/29 06:59:04;;;;;;;2.13;1.55;;;22.20;84.30;;;;;;4958698;28;20051;-39
2023/07/29 07:01:31;;;;;;;2.60;1.80;;;21.60;84.10;;;;;;4974073;28;20389;-39
2023/07/29 07:03:58;;;;;;;2.38;1.60;;;;;;;;;;4951829;28;20134;-40
2023/07/29 07:06:25;;;;;;;2.13;1.75;;;;;;;;;;4955632;28;20100;-39
2023/07/29 07:08:53;;;;;;;2.33;1.60;;;21.40;67.80;;;;;;4969149;28;20047;-37
2023/07/29 07:11:20;;;;;;;1.77;1.50;;;;;;;;;;4968048;28;20046;-39
2023/07/29 07:13:47;;;;;;;2.10;1.70;;;21.70;83.20;;;;;;4958368;28;20050;-40
2023/07/29 07:16:14;;;;;;;3.42;1.75;;;21.70;83.60;;;;;;4960512;28;21122;-39
2023/07/29 07:18:41;;;;;;;2.28;1.80;;;;;;;;;;4960263;28;20062;-37
2023/07/29 07:21:07;;;;;;;2.13;1.67;;;21.70;83.30;;;;;;4959439;28;20549;-40
2023/07/29 07:23:35;;;;;;;1.88;1.50;;;;;;;;;;4961433;28;20469;-36
2023/07/29 07:26:03;;;;;;;4.15;1.77;;;21.50;72.60;;;;;;4959932;28;20126;-38
2023/07/29 07:28:29;;;;;;;2.20;1.85;;;21.80;83.30;;;;;;4958699;28;20051;-39
2023/07/29 07:30:59;;;;;;;1.67;1.45;;;;;;;;;;4960320;28;20125;-38
2023/07/29 07:33:26;;;;;;;3.35;1.70;;;22.00;84.20;;;;;;4959002;28;20051;-38
2023/07/29 07:35:54;;;;;;;2.30;1.60;;;;;;;;;;4958420;28;20078;-38
2023/07/29 07:38:20;;;;;;;2.13;1.50;;;21.40;83.10;;;;;;4958276;28;20213;-36
2023/07/29 07:40:54;;;;;;;2.70;1.65;;;22.10;68.80;;;;;;4961200;28;20145;-37
2023/07/29 07:43:25;;;;;;;2.33;1.63;;;21.50;67.70;;;;;;4949815;28;20416;-38
2023/07/29 07:45:58;;;;;;;3.25;1.73;;;21.50;67.70;;;;;;4949949;28;20053;-36
2023/07/29 07:48:25;;;;;;;2.90;1.60;;;;;;;;;;4950076;28;20142;-35
2023/07/29 07:50:52;;;;;;;2.80;1.80;;;22.40;83.40;;;;;;4949531;28;20047;-40
2023/07/29 07:53:19;;;;;;;2.35;1.63;;;21.30;83.20;;;;;;4949636;28;20138;-40
2023/07/29 07:55:46;;;;;;;2.83;1.60;;;21.40;82.80;;;;;;4950893;28;20051;-40
2023/07/29 07:58:13;;;;;;;3.03;1.60;;;21.30;73.30;;;;;;4959722;28;20055;-40
2023/07/29 08:00:41;;;;;;;2.80;1.70;;;21.50;67.60;;;;;;4949702;29;20053;-35
2023/07/29 08:03:08;;;;;;;2.58;1.65;;;;;;;;;;4959761;28;20412;-36
2023/07/29 08:05:35;;;;;;;2.13;1.45;;;21.40;81.00;;;;;;4963928;28;20134;-39
2023/07/29 08:08:02;;;;;;;2.40;1.50;;;;;;;;;;4952917;28;20585;-37
2023/07/29 08:10:29;;;;;;;2.30;1.50;;;20.60;82.70;;;;;;4952857;28;20047;-38
2023/07/29 08:12:56;;;;;;;2.10;1.77;;;;;;;;;;4953467;28;20066;-36
2023/07/29 08:15:22;;;;;;;2.00;1.70;;;21.40;78.90;;;;;;4955326;28;20059;-36
2023/07/29 08:17:50;;;;;;;2.65;1.80;;;21.90;67.80;;;;;;4953063;28;20154;-37
2023/07/29 08:20:17;;;;;;;1.88;1.60;;;20.90;83.40;;;;;;4952767;28;20058;-39
2023/07/29 08:22:44;;;;;;;1.95;1.60;;;;;;;;;;4952499;28;20162;-35
2023/07/29 08:25:11;;;;;;;3.45;1.50;;;21.40;83.10;;;;;;4965419;28;20130;-39
2023/07/29 08:27:38;;;;;;;2.70;1.80;;;22.70;79.60;;;;;;4961710;28;20653;-40
2023/07/29 08:30:06;;;;;;;2.05;1.60;;;20.80;72.30;;;;;;4961382;28;20057;-37
2023/07/29 08:32:33;;;;;;;2.17;1.80;;;;;;;;;;4961193;28;20500;-37
2023/07/29 08:35:01;;;;;;;3.50;1.65;;;20.50;82.20;;;;;;4963031;28;20470;-40
2023/07/29 08:37:29;;;;;;;2.17;1.58;;;21.50;74.10;;;;;;4959482;28;20058;-39
2023/07/29 08:39:56;;;;;;;3.47;1.75;;;21.30;82.90;;;;;;4964612;28;20055;-40
2023/07/29 08:42:23;;;;;;;2.58;1.83;;;;;;;;;;4973966;28;20124;-36
2023/07/29 08:44:50;;;;;;;2.78;1.73;;;22.20;74.60;;;;;;4961911;28;20051;-40
2023/07/29 08:47:17;;;;;;;2.45;1.80;;;;;;;;;;4961837;28;20047;-36
2023/07/29 08:49:44;;;;;;;3.05;1.70;;;21.10;70.00;;;;;;4960009;28;20133;-37
2023/07/29 08:52:12;;;;;;;2.90;1.65;;;21.60;67.40;;;;;;4961341;28;20476;-35
2023/07/29 08:54:39;;;;;;;1.83;1.50;;;;;;;;;;4956184;28;20057;-36
2023/07/29 08:57:07;;;;;;;2.78;1.85;;;21.70;82.80;;;;;;4969054;28;20042;-41
2023/07/29 08:59:34;;;;;;;5.25;1.83;;;;;;;;;;4971415;28;20133;-38
2023/07/29 09:02:01;;;;;;;2.10;1.63;;;;;;;;;;4970858;28;20488;-38
2023/07/29 09:04:28;;;;;;;3.25;1.50;;;;;;;;;;4961743;28;20587;-38
2023/07/29 09:06:55;;;;;;;1.98;1.42;;;;;;;;;;4951961;28;20058;-39
2023/07/29 09:09:23;;;;;;;1.85;1.42;;;21.60;67.30;;;;;;4951895;28;20137;-39
2023/07/29 09:11:50;;;;;;;2.80;1.80;;;;;;;;;;4952330;28;20054;-39
2023/07/29 09:14:17;;;;;;;2.22;1.90;;;21.40;83.40;;;;;;4956936;28;20057;-38
2023/07/29 09:16:44;;;;;;;2.95;1.65;;;;;;;;;;4971112;28;20458;-37
2023/07/29 09:19:11;;;;;;;2.60;1.73;;;;;;;;;;4971378;28;20057;-39
2023/07/29 09:21:39;;;;;;;2.08;1.80;;;20.90;66.80;;;;;;4969902;28;20134;-37
2023/07/29 09:24:07;;;;;;;1.45;1.30;;;;;;;;;;4958592;28;20062;-37
2023/07/29 09:26:35;;;;;;;2.55;1.58;;;21.70;67.10;;;;;;4964775;28;20079;-36
2023/07/29 09:29:02;;;;;;;2.10;1.50;;;21.50;82.30;;;;;;4951923;28;20134;-40
2023/07/29 09:31:29;;;;;;;3.08;1.42;;;21.70;67.10;;;;;;4951843;28;20058;-36
2023/07/29 09:33:57;;;;;;;2.70;1.52;;;22.80;69.20;;;;;;4951554;28;20055;-32
2023/07/29 09:36:24;;;;;;;3.20;1.80;;;21.70;83.20;;;;;;4955578;28;20537;-32
2023/07/29 09:38:53;;;;;;;1.88;1.60;;;21.70;67.10;;;;;;4970467;28;20051;-33
2023/07/29 09:41:20;;;;;;;2.20;1.60;;;21.60;82.40;;;;;;4970782;28;20476;-32
2023/07/29 09:43:48;;;;;;;1.60;1.48;;;21.70;67.00;;;;;;4969254;28;20146;-40
2023/07/29 09:46:15;;;;;;;2.03;1.40;;;;;;;;;;4972991;28;20439;-35
2023/07/29 09:48:45;;;;;;;2.70;1.70;;;21.90;82.10;;;;;;4957558;28;20126;-33
2023/07/29 09:51:12;;;;;;;5.20;1.50;;;21.80;66.90;;;;;;4956646;28;20052;-33
2023/07/29 09:53:43;;;;;;;2.03;1.60;;;21.80;66.90;;;;;;4958930;28;20086;-39
2023/07/29 09:56:10;;;;;;;1.70;1.50;;;21.20;81.70;;;;;;4960045;28;20097;-33
2023/07/29 09:58:38;;;;;;;2.53;1.73;;;21.90;69.50;;;;;;4959866;28;20047;-35
2023/07/29 10:01:06;;;;;;;2.47;1.50;;;20.90;72.40;;;;;;4960566;28;20043;-32
2023/07/29 10:03:33;;;;;;;2.05;1.65;;;;;;;;;;4961209;28;20125;-39
2023/07/29 10:06:01;;;;;;;2.50;1.52;;;22.30;81.40;;;;;;4959823;28;20126;-39
2023/07/29 10:08:28;;;;;;;2.05;1.58;;;;;;;;;;4959913;28;20055;-41
2023/07/29 10:10:54;;;;;;;2.42;1.70;;;21.70;82.60;;;;;;4961264;28;20061;-40
2023/07/29 10:13:21;;;;;;;2.90;1.65;;;21.90;81.90;;;;;;4959566;28;20417;-41
2023/07/29 10:15:48;;;;;;;2.03;1.70;;;;;;;;;;4959552;28;20126;-37
2023/07/29 10:18:16;;;;;;;2.85;1.70;;;22.60;81.40;;;;;;4961257;28;20126;-38
2023/07/29 10:20:43;;;;;;;2.33;1.80;;;22.10;82.50;;;;;;4958416;28;20078;-40
2023/07/29 10:23:10;;;;;;;2.42;1.70;;;;;;;;;;4959642;28;20129;-35
2023/07/29 10:25:39;;;;;;;2.20;1.80;;;22.30;66.50;;;;;;4958345;28;20126;-38
2023/07/29 10:28:07;;;;;;;2.40;1.73;;;22.10;66.30;;;;;;4960044;28;20309;-36
2023/07/29 10:30:34;;;;;;;2.30;1.80;;;;;;;;;;4960104;28;20566;-35
2023/07/29 10:33:03;;;;;;;2.00;1.65;;;22.50;80.10;;;;;;4964467;28;20122;-38
2023/07/29 10:35:31;;;;;;;2.95;1.60;;;22.50;81.90;;;;;;4963083;28;20114;-40
2023/07/29 10:37:58;;;;;;;2.00;1.80;;;22.00;71.20;;;;;;4953937;28;20078;-39
2023/07/29 10:40:25;;;;;;;2.15;1.55;;;;;;;;;;4950298;28;20066;-35
2023/07/29 10:43:02;;;;;;;2.30;1.77;;;22.60;81.60;;;;;;4950080;28;20099;-38
2023/07/29 10:45:29;;;;;;;1.98;1.60;;;;;;;;;;4950689;28;20103;-39
2023/07/29 10:47:56;;;;;;;2.88;1.88;;;;;;;;;;4950733;28;20133;-40
2023/07/29 10:50:23;;;;;;;1.90;1.70;;;;;;;;;;4957274;28;20049;-37
2023/07/29 10:52:52;;;;;;;2.15;1.75;;;22.40;66.20;;;;;;4969395;28;20138;-38
2023/07/29 10:55:26;;;;;;;2.38;1.63;;;22.40;66.10;;;;;;4969478;28;20065;-35
2023/07/29 10:57:53;;;;;;;2.20;1.70;;;;;;;;;;4969464;28;20051;-38
2023/07/29 11:00:21;;;;;;;2.35;1.70;;;22.20;81.50;;;;;;4969518;28;20518;-40
2023/07/29 11:02:59;;;;;;;1.80;1.60;;;23.10;81.60;;;;;;4969208;28;20047;-41
2023/07/29 11:05:26;;;;;;;2.65;1.80;;;22.30;81.30;;;;;;4969580;28;20062;-40
2023/07/29 11:07:54;;;;;;;2.67;1.70;;;23.40;81.50;;;;;;4967867;28;20492;-40
2023/07/29 11:10:22;;;;;;;2.70;1.73;;;;;;;;;;4969697;28;20051;-37
2023/07/29 11:12:50;;;;;;;2.40;1.83;;;22.90;82.00;;;;;;4963174;28;20054;-39
2023/07/29 11:15:20;;;;;;;2.97;1.60;;;22.60;82.00;;;;;;4963630;28;20135;-40
2023/07/29 11:17:48;;;;;;;2.28;1.52;;;22.40;80.70;;;;;;4969460;28;20055;-41
2023/07/29 11:20:14;;;;;;;2.10;1.67;;;22.20;72.40;;;;;;4969322;28;20057;-40
2023/07/29 11:22:41;;;;;;;3.00;2.10;;;22.20;81.20;;;;;;4967088;28;20077;-40
2023/07/29 11:25:11;;;;;;;1.80;1.40;;;22.60;66.10;;;;;;4950046;28;20047;-37
2023/07/29 11:27:38;;;;;;;1.80;1.60;;;23.40;70.30;;;;;;4949895;28;20489;-40
2023/07/29 11:30:06;;;;;;;2.17;1.60;;;21.60;80.70;;;;;;4957444;28;20130;-39
2023/07/29 11:32:33;;;;;;;1.85;1.65;;;22.40;67.10;;;;;;4960130;28;20047;-38
2023/07/29 11:35:03;;;;;;;2.00;1.40;;;23.10;81.70;;;;;;4957758;28;20130;-41
2023/07/29 11:37:30;;;;;;;1.98;1.50;;;;;;;;;;4958024;28;20055;-36
2023/07/29 11:39:58;;;;;;;1.77;1.50;;;;;;;;;;4976445;28;20135;-38
2023/07/29 11:42:26;;;;;;;1.77;1.45;;;22.60;66.30;;;;;;4961685;28;20081;-35
2023/07/29 11:44:53;;;;;;;3.95;1.70;;;;;;;;;;4962868;28;20142;-38
2023/07/29 11:47:20;;;;;;;1.80;1.50;;;22.40;82.00;;;;;;4962426;28;20509;-41
2023/07/29 11:49:47;;;;;;;2.30;1.45;;;;;;;;;;4960043;28;20061;-38
2023/07/29 11:52:13;;;;;;;2.15;1.45;;;22.70;81.80;;;;;;4961405;28;20044;-40
2023/07/29 11:54:40;;;;;;;2.55;1.45;;;22.00;78.60;;;;;;4962134;28;20104;-41
2023/07/29 11:57:07;;;;;;;2.50;1.50;;;22.50;66.40;;;;;;4963324;28;20065;-38
2023/07/29 11:59:36;;;;;;;1.80;1.40;;;22.20;81.20;;;;;;4961599;28;20135;-40
2023/07/29 12:02:03;;;;;;;1.90;1.40;;;23.50;82.00;;;;;;4953933;28;20134;-40
2023/07/29 12:04:30;;;;;;;2.30;1.60;;;22.90;82.10;;;;;;4953444;28;20062;-41
2023/07/29 12:06:56;;;;;;;2.00;1.80;;;21.90;81.60;;;;;;4969641;28;20058;-40
2023/07/29 12:09:24;;;;;;;2.45;1.50;;;;;;;;;;4966307;28;20058;-38
2023/07/29 12:11:52;;;;;;;2.35;1.50;;;22.30;66.70;;;;;;4972338;28;20093;-40
2023/07/29 12:14:19;;;;;;;2.30;1.60;;;;;;;;;;4964587;28;20051;-40
2023/07/29 12:16:48;;;;;;;1.85;1.38;;;22.40;66.80;;;;;;4972039;28;20130;-36
2023/07/29 12:19:17;;;;;;;2.30;1.50;;;;;;;;;;4962093;28;20142;-39
2023/07/29 12:21:44;;;;;;;1.92;1.52;;;;;;;;;;4959158;28;20058;-35
2023/07/29 12:24:11;;;;;;;3.10;1.48;;;23.10;82.70;;;;;;4962024;28;20055;-40
2023/07/29 12:26:38;;;;;;;1.83;1.38;;;;;;;;;;4958930;28;20050;-36
2023/07/29 12:29:12;;;;;;;2.28;1.50;;;21.60;76.50;;;;;;4961593;28;20053;-38
2023/07/29 12:31:39;;;;;;;2.10;1.58;;;;;;;;;;4960570;28;20061;-39
2023/07/29 12:34:07;;;;;;;3.15;1.50;;;22.60;66.70;;;;;;4958312;28;20135;-39
2023/07/29 12:36:44;;;;;;;3.00;1.42;;;22.60;66.70;;;;;;4961563;28;20055;-35
2023/07/29 12:39:20;;;;;;;3.15;1.55;;;22.70;81.10;;;;;;4952479;28;20051;-40
2023/07/29 12:41:47;;;;;;;2.38;1.40;;;;;;;;;;4951131;28;20130;-38
2023/07/29 12:44:13;;;;;;;2.92;1.42;;;22.20;82.00;;;;;;4955767;28;20086;-40
2023/07/29 12:46:40;;;;;;;2.70;1.38;;;22.00;67.40;;;;;;4958815;28;20134;-40
2023/07/29 12:49:08;;;;;;;2.25;1.70;;;22.70;66.60;;;;;;4951906;28;20051;-40
2023/07/29 12:51:36;;;;;;;2.20;1.50;;;22.50;76.70;;;;;;4954623;28;20047;-39
2023/07/29 12:54:02;;;;;;;2.40;1.40;;;22.30;78.60;;;;;;4962768;28;20657;-40
2023/07/29 12:56:30;;;;;;;4.07;1.63;;;;;;;;;;4970807;28;20078;-40
2023/07/29 12:58:57;;;;;;;1.83;1.50;;;23.20;71.80;;;;;;4969017;28;20120;-39
2023/07/29 13:01:24;;;;;;;2.53;1.48;;;23.30;76.30;;;;;;4971213;28;20137;-40
2023/07/29 13:03:50;;;;;;;2.30;1.50;;;22.60;81.30;;;;;;4970886;28;20718;-40
2023/07/29 13:06:19;;;;;;;2.60;1.45;;;22.70;66.50;;;;;;4957498;28;20138;-40
2023/07/29 13:08:45;;;;;;;3.95;1.55;;;22.60;68.90;;;;;;4951851;28;20051;-40
2023/07/29 13:11:12;;;;;;;2.00;1.55;;;22.70;81.30;;;;;;4952485;28;20469;-40
2023/07/29 13:13:39;;;;;;;2.25;1.52;;;;;;;;;;4952075;28;20126;-39
2023/07/29 13:16:06;;;;;;;3.80;1.70;;;22.90;82.20;;;;;;4957867;28;20142;-41
2023/07/29 13:18:33;;;;;;;3.08;1.70;;;22.40;81.50;;;;;;4951866;28;20058;-40
2023/07/29 13:21:00;;;;;;;2.40;1.70;;;22.70;69.00;;;;;;4951858;28;20108;-38